createdAt,value
2019-01-16T00:01:15.907Z,22.40
2019-01-16T00:04:24.306Z,22.50
2019-01-16T00:07:52.784Z,22.50
2019-01-16T00:11:01.265Z,22.50
2019-01-16T00:14:15.059Z,22.40
2019-01-16T00:17:29.495Z,22.50
2019-01-16T00:20:32.372Z,22.50
2019-01-16T00:23:40.487Z,22.50
2019-01-16T00:26:48.690Z,22.40
2019-01-16T00:29:57.459Z,22.40
2019-01-16T00:33:26.430Z,22.50
2019-01-16T00:36:42.108Z,22.40
2019-01-16T00:39:52.190Z,22.40
2019-01-16T00:43:20.022Z,22.40
2019-01-16T00:46:28.967Z,22.40
2019-01-16T00:49:43.186Z,22.40
2019-01-16T00:52:51.865Z,22.40
2019-01-16T00:56:07.878Z,22.40
2019-01-16T00:59:11.257Z,22.40
2019-01-16T01:02:21.256Z,22.40
2019-01-16T01:05:30.306Z,22.40
2019-01-16T01:08:37.394Z,22.40
2019-01-16T01:11:59.472Z,22.40
2019-01-16T01:15:13.906Z,22.40
2019-01-16T01:18:40.657Z,22.40
2019-01-16T01:21:54.742Z,22.40
2019-01-16T01:25:13.359Z,22.40
2019-01-16T01:28:23.731Z,22.30
2019-01-16T01:31:43.959Z,22.30
2019-01-16T01:34:58.017Z,22.30
2019-01-16T01:38:07.038Z,22.20
2019-01-16T01:41:25.862Z,22.20
2019-01-16T01:44:47.795Z,22.20
2019-01-16T01:47:58.454Z,22.20
2019-01-16T01:51:26.679Z,22.20
2019-01-16T01:54:46.398Z,22.20
2019-01-16T01:58:08.733Z,22.10
2019-01-16T02:01:27.837Z,22.00
2019-01-16T02:04:41.178Z,21.80
2019-01-16T02:07:42.970Z,21.90
2019-01-16T02:10:47.752Z,22.00
2019-01-16T02:13:56.989Z,22.00
2019-01-16T02:17:22.007Z,22.00
2019-01-16T02:20:32.326Z,22.10
2019-01-16T02:23:42.559Z,22.10
2019-01-16T02:26:55.442Z,22.10
2019-01-16T02:30:08.545Z,22.10
2019-01-16T02:33:30.778Z,22.10
2019-01-16T02:36:41.486Z,22.00
2019-01-16T02:39:50.986Z,22.10
2019-01-16T02:42:58.804Z,22.00
2019-01-16T02:46:09.888Z,22.10
2019-01-16T02:49:23.173Z,22.10
2019-01-16T02:52:38.283Z,22.00
2019-01-16T02:55:47.913Z,22.10
2019-01-16T02:58:51.998Z,22.00
2019-01-16T03:02:07.842Z,22.10
2019-01-16T03:05:07.418Z,22.20
2019-01-16T03:08:10.666Z,22.10
2019-01-16T03:11:12.130Z,22.10
2019-01-16T03:14:22.291Z,22.10
2019-01-16T03:17:23.449Z,22.10
2019-01-16T03:20:38.933Z,22.20
2019-01-16T03:23:44.735Z,22.20
2019-01-16T03:26:45.918Z,22.30
2019-01-16T03:29:56.541Z,22.30
2019-01-16T03:32:59.038Z,22.30
2019-01-16T03:36:02.144Z,22.30
2019-01-16T03:39:21.036Z,22.30
2019-01-16T03:42:30.673Z,22.20
2019-01-16T03:45:45.283Z,21.80
2019-01-16T03:49:02.912Z,21.60
2019-01-16T03:52:13.198Z,21.50
2019-01-16T03:55:16.085Z,21.50
2019-01-16T03:58:29.087Z,21.50
2019-01-16T04:01:46.286Z,21.50
2019-01-16T04:04:56.600Z,21.50
2019-01-16T04:08:05.362Z,21.50
2019-01-16T04:11:18.506Z,21.50
2019-01-16T04:14:21.722Z,21.60
2019-01-16T04:17:30.975Z,21.80
2019-01-16T04:20:44.333Z,21.90
2019-01-16T04:23:46.639Z,22.00
2019-01-16T04:27:00.147Z,22.20
2019-01-16T04:30:09.549Z,22.20
2019-01-16T04:33:22.043Z,22.20
2019-01-16T04:36:35.032Z,22.30
2019-01-16T04:39:46.306Z,22.30
2019-01-16T04:42:56.201Z,22.30
2019-01-16T04:46:05.071Z,22.30
2019-01-16T04:49:16.565Z,22.40
2019-01-16T04:52:42.094Z,22.40
2019-01-16T04:55:52.490Z,22.40
2019-01-16T04:58:53.600Z,22.50
2019-01-16T05:01:56.986Z,22.40
2019-01-16T05:05:03.658Z,22.40
2019-01-16T05:08:29.815Z,22.50
2019-01-16T05:12:01.637Z,22.50
2019-01-16T05:15:22.378Z,22.50
2019-01-16T05:18:44.377Z,22.50
2019-01-16T05:21:59.587Z,22.50
2019-01-16T05:25:23.359Z,22.50
2019-01-16T05:28:33.905Z,22.50
2019-01-16T05:35:31.776Z,22.50
2019-01-16T05:38:58.694Z,22.40
2019-01-16T05:42:12.568Z,22.40
2019-01-16T05:45:43.831Z,22.40
2019-01-16T05:48:58.399Z,22.40
2019-01-16T05:52:25.042Z,22.40
2019-01-16T05:55:43.578Z,22.50
2019-01-16T05:59:02.013Z,22.50
2019-01-16T06:02:28.506Z,22.40
2019-01-16T06:05:44.474Z,22.50
2019-01-16T06:08:56.055Z,22.50
2019-01-16T06:12:20.048Z,22.50
2019-01-16T06:15:37.277Z,22.60
2019-01-16T06:19:10.614Z,22.60
2019-01-16T06:22:34.634Z,22.60
2019-01-16T06:25:45.556Z,22.60
2019-01-16T06:29:18.493Z,22.70
2019-01-16T06:32:28.369Z,22.70
2019-01-16T06:35:46.228Z,22.70
2019-01-16T06:39:10.777Z,22.70
2019-01-16T06:42:26.748Z,22.70
2019-01-16T06:45:51.509Z,22.60
2019-01-16T06:49:04.780Z,22.70
2019-01-16T06:52:19.442Z,22.70
2019-01-16T06:55:33.291Z,22.70
2019-01-16T06:58:53.812Z,22.70
2019-01-16T07:02:02.615Z,22.70
2019-01-16T07:05:20.323Z,22.70
2019-01-16T07:08:29.586Z,22.80
2019-01-16T07:11:38.681Z,22.70
2019-01-16T07:14:47.885Z,22.70
2019-01-16T07:18:01.217Z,22.80
2019-01-16T07:21:18.241Z,22.70
2019-01-16T07:24:35.202Z,22.80
2019-01-16T07:27:48.740Z,22.70
2019-01-16T07:31:05.523Z,22.70
2019-01-16T07:34:10.375Z,22.70
2019-01-16T07:37:21.003Z,22.70
2019-01-16T07:40:23.824Z,22.70
2019-01-16T07:43:38.348Z,22.70
2019-01-16T07:46:44.912Z,22.70
2019-01-16T07:53:30.246Z,22.60
2019-01-16T07:56:37.208Z,22.60
2019-01-16T08:00:04.658Z,22.60
2019-01-16T08:03:24.276Z,22.60
2019-01-16T08:06:39.723Z,22.60
2019-01-16T08:09:56.467Z,22.60
2019-01-16T08:13:27.247Z,22.60
2019-01-16T08:16:42.945Z,22.60
2019-01-16T08:19:57.717Z,22.60
2019-01-16T08:23:07.843Z,22.70
2019-01-16T08:26:17.603Z,22.70
2019-01-16T08:29:38.886Z,22.80
2019-01-16T08:32:49.677Z,22.80
2019-01-16T08:35:59.679Z,22.90
2019-01-16T08:39:10.078Z,22.90
2019-01-16T08:42:25.727Z,22.90
2019-01-16T08:45:42.262Z,22.90
2019-01-16T08:48:58.663Z,22.80
2019-01-16T08:52:05.970Z,22.90
2019-01-16T08:55:22.276Z,22.80
2019-01-16T08:58:34.543Z,22.80
2019-01-16T09:02:01.088Z,22.80
2019-01-16T09:05:15.292Z,22.80
2019-01-16T09:08:39.152Z,22.70
2019-01-16T09:11:53.006Z,22.70
2019-01-16T09:15:22.164Z,22.70
2019-01-16T09:18:36.792Z,22.70
2019-01-16T09:21:55.947Z,22.70
2019-01-16T09:25:18.173Z,22.70
2019-01-16T09:28:41.697Z,22.70
2019-01-16T09:32:11.817Z,22.70
2019-01-16T09:39:36.253Z,22.70
2019-01-16T09:42:51.672Z,22.70
2019-01-16T09:46:39.166Z,22.70
2019-01-16T09:57:28.450Z,22.70
2019-01-16T10:07:55.579Z,22.70
2019-01-16T10:11:07.432Z,22.70
2019-01-16T10:14:25.179Z,22.70
2019-01-16T10:18:13.545Z,22.70
2019-01-16T10:21:30.100Z,22.70
2019-01-16T10:24:41.663Z,22.70
2019-01-16T10:27:54.436Z,22.70
2019-01-16T10:31:23.577Z,22.70
2019-01-16T10:34:37.990Z,22.70
2019-01-16T10:37:49.115Z,22.70
2019-01-16T10:40:59.063Z,22.70
2019-01-16T10:44:10.583Z,22.70
2019-01-16T10:47:32.664Z,22.70
2019-01-16T10:50:37.930Z,22.70
2019-01-16T10:53:51.962Z,22.70
2019-01-16T10:57:12.668Z,22.70
2019-01-16T11:03:41.016Z,22.70
2019-01-16T11:06:53.997Z,22.70
2019-01-16T11:10:21.699Z,22.70
2019-01-16T11:13:50.122Z,22.70
2019-01-16T11:17:02.295Z,22.70
2019-01-16T11:20:23.609Z,22.80
2019-01-16T11:23:37.960Z,22.80
2019-01-16T11:27:01.538Z,22.80
2019-01-16T11:30:27.625Z,22.80
2019-01-16T11:33:28.533Z,22.80
2019-01-16T11:36:34.112Z,22.90
2019-01-16T11:39:45.658Z,22.90
2019-01-16T11:42:57.235Z,22.90
2019-01-16T11:46:07.762Z,22.90
2019-01-16T11:49:22.607Z,22.90
2019-01-16T11:52:40.364Z,22.90
2019-01-16T11:55:49.818Z,22.90
2019-01-16T11:59:06.972Z,22.90
2019-01-16T12:02:29.234Z,22.90
2019-01-16T12:05:47.547Z,23.00
2019-01-16T12:08:59.032Z,23.00
2019-01-16T12:12:25.270Z,22.90
2019-01-16T12:15:39.456Z,23.00
2019-01-16T12:18:49.574Z,23.00
2019-01-16T12:21:59.618Z,23.00
2019-01-16T12:25:17.449Z,22.90
2019-01-16T12:28:28.467Z,22.90
2019-01-16T12:31:24.532Z,22.90
2019-01-16T12:34:42.505Z,22.90
2019-01-16T12:37:57.499Z,22.90
2019-01-16T12:41:15.959Z,22.90
2019-01-16T12:44:26.975Z,23.00
2019-01-16T12:47:39.318Z,23.00
2019-01-16T12:50:50.991Z,23.00
2019-01-16T12:54:02.368Z,23.00
2019-01-16T12:57:13.389Z,23.00
2019-01-16T13:00:25.479Z,22.90
2019-01-16T13:03:42.546Z,22.90
2019-01-16T13:06:52.515Z,22.90
2019-01-16T13:10:06.081Z,23.00
2019-01-16T13:13:25.427Z,23.00
2019-01-16T13:16:40.405Z,23.00
2019-01-16T13:19:46.665Z,23.00
2019-01-16T13:22:57.145Z,23.00
2019-01-16T13:26:08.200Z,22.90
2019-01-16T13:29:17.743Z,22.90
2019-01-16T13:32:27.901Z,22.80
2019-01-16T13:35:37.441Z,22.80
2019-01-16T13:38:36.542Z,22.80
2019-01-16T13:41:54.071Z,22.80
2019-01-16T13:44:56.236Z,22.80
2019-01-16T13:47:59.826Z,22.80
2019-01-16T13:51:05.211Z,22.80
2019-01-16T13:54:19.340Z,22.80
2019-01-16T13:57:28.877Z,22.90
2019-01-16T14:00:58.392Z,22.80
2019-01-16T14:04:07.935Z,22.80
2019-01-16T14:07:18.706Z,22.90
2019-01-16T14:10:30.166Z,22.90
2019-01-16T14:13:41.480Z,22.90
2019-01-16T14:16:55.940Z,22.90
2019-01-16T14:20:25.162Z,22.90
2019-01-16T14:23:42.975Z,22.90
2019-01-16T14:26:59.587Z,22.90
2019-01-16T14:30:28.074Z,22.80
2019-01-16T14:33:38.451Z,22.80
2019-01-16T14:36:47.051Z,22.80
2019-01-16T14:40:15.786Z,22.80
2019-01-16T14:43:26.591Z,22.80
2019-01-16T14:46:35.548Z,22.80
2019-01-16T14:49:55.330Z,22.80
2019-01-16T14:53:05.791Z,22.80
2019-01-16T14:56:29.062Z,22.70
2019-01-16T14:59:38.300Z,22.80
2019-01-16T15:02:49.371Z,22.80
2019-01-16T15:05:58.711Z,22.70
2019-01-16T15:09:08.150Z,22.70
2019-01-16T15:12:17.692Z,22.70
2019-01-16T15:15:29.077Z,22.70
2019-01-16T15:18:38.930Z,22.70
2019-01-16T15:21:56.155Z,22.70
2019-01-16T15:24:56.790Z,22.70
2019-01-16T15:28:11.987Z,22.70
2019-01-16T15:31:32.769Z,22.70
2019-01-16T15:34:59.134Z,22.70
2019-01-16T15:38:20.903Z,22.70
2019-01-16T15:41:31.294Z,22.70
2019-01-16T15:44:58.017Z,22.70
2019-01-16T15:48:08.136Z,22.70
2019-01-16T15:51:31.893Z,22.70
2019-01-16T15:54:45.801Z,22.70
2019-01-16T15:58:15.742Z,22.70
2019-01-16T16:01:27.977Z,22.70
2019-01-16T16:04:42.821Z,22.70
2019-01-16T16:08:09.315Z,22.70
2019-01-16T16:11:21.656Z,22.70
2019-01-16T16:14:48.947Z,22.60
2019-01-16T16:17:51.182Z,22.70
2019-01-16T16:21:13.413Z,22.60
2019-01-16T16:24:24.925Z,22.60
2019-01-16T16:27:54.649Z,22.60
2019-01-16T16:31:10.417Z,22.60
2019-01-16T16:34:25.183Z,22.60
2019-01-16T16:37:35.350Z,22.60
2019-01-16T16:40:52.562Z,22.60
2019-01-16T16:44:03.593Z,22.60
2019-01-16T16:47:24.154Z,22.60
2019-01-16T16:50:48.033Z,22.60
2019-01-16T16:53:57.777Z,22.60
2019-01-16T16:57:07.325Z,22.60
2019-01-16T17:00:20.440Z,22.60
2019-01-16T17:03:49.744Z,22.60
2019-01-16T17:06:58.678Z,22.60
2019-01-16T17:10:01.763Z,22.60
2019-01-16T17:13:11.001Z,22.60
2019-01-16T17:16:28.835Z,22.60
2019-01-16T17:19:38.375Z,22.60
2019-01-16T17:22:49.153Z,22.60
2019-01-16T17:25:59.916Z,22.60
2019-01-16T17:29:10.241Z,22.60
2019-01-16T17:32:27.295Z,22.60
2019-01-16T17:35:46.976Z,22.60
2019-01-16T17:39:03.893Z,22.60
2019-01-16T17:42:20.809Z,22.60
2019-01-16T17:45:30.045Z,22.60
2019-01-16T17:48:40.509Z,22.60
2019-01-16T17:51:42.682Z,22.60
2019-01-16T17:54:59.258Z,22.60
2019-01-16T17:58:08.830Z,22.60
2019-01-16T18:01:28.820Z,22.60
2019-01-16T18:04:45.947Z,22.60
2019-01-16T18:07:55.273Z,22.60
2019-01-16T18:11:25.090Z,22.60
2019-01-16T18:14:37.398Z,22.60
2019-01-16T18:17:48.272Z,22.60
2019-01-16T18:20:58.020Z,22.60
2019-01-16T18:24:14.627Z,22.60
2019-01-16T18:27:32.463Z,22.60
2019-01-16T18:30:41.609Z,22.60
2019-01-16T18:33:43.254Z,22.60
2019-01-16T18:36:50.650Z,22.60
2019-01-16T18:39:59.688Z,22.60
2019-01-16T18:43:28.781Z,22.60
2019-01-16T18:46:45.695Z,22.60
2019-01-16T18:49:55.546Z,22.60
2019-01-16T18:53:14.303Z,22.60
2019-01-16T18:56:25.281Z,22.60
2019-01-16T18:59:39.163Z,22.60
2019-01-16T19:03:02.286Z,22.50
2019-01-16T19:06:21.556Z,22.50
2019-01-16T19:09:25.058Z,22.60
2019-01-16T19:12:34.295Z,22.60
2019-01-16T19:15:51.322Z,22.60
2019-01-16T19:19:00.440Z,22.50
2019-01-16T19:22:08.141Z,22.50
2019-01-16T19:25:21.063Z,22.60
2019-01-16T19:28:30.250Z,22.60
2019-01-16T19:31:40.151Z,22.50
2019-01-16T19:34:39.566Z,22.50
2019-01-16T19:37:49.161Z,22.50
2019-01-16T19:40:58.113Z,22.50
2019-01-16T19:44:06.505Z,22.50
2019-01-16T19:47:25.801Z,22.50
2019-01-16T19:50:34.730Z,22.50
2019-01-16T19:53:46.515Z,22.50
2019-01-16T19:56:55.298Z,22.60
2019-01-16T20:00:08.475Z,22.60
2019-01-16T20:03:18.219Z,22.60
2019-01-16T20:06:30.623Z,22.60
2019-01-16T20:09:42.275Z,22.60
2019-01-16T20:12:51.295Z,22.60
2019-01-16T20:15:57.392Z,22.50
2019-01-16T20:19:01.852Z,22.50
2019-01-16T20:22:11.899Z,22.50
2019-01-16T20:25:25.064Z,22.50
2019-01-16T20:28:37.038Z,22.50
2019-01-16T20:32:01.933Z,22.60
2019-01-16T20:35:12.271Z,22.60
2019-01-16T20:38:21.249Z,22.50
2019-01-16T20:41:30.451Z,22.50
2019-01-16T20:44:58.451Z,22.50
2019-01-16T20:48:07.011Z,22.60
2019-01-16T20:51:17.005Z,22.60
2019-01-16T20:54:27.550Z,22.50
2019-01-16T20:57:33.279Z,22.50
2019-01-16T21:00:52.450Z,22.50
2019-01-16T21:04:11.960Z,22.50
2019-01-16T21:07:15.787Z,22.50
2019-01-16T21:10:18.947Z,22.50
2019-01-16T21:13:29.720Z,22.50
2019-01-16T21:16:37.811Z,22.50
2019-01-16T21:19:41.803Z,22.50
2019-01-16T21:22:50.287Z,22.50
2019-01-16T21:26:04.035Z,22.50
2019-01-16T21:29:05.691Z,22.40
2019-01-16T21:32:21.747Z,22.40
2019-01-16T21:35:38.194Z,22.40
2019-01-16T21:38:48.370Z,22.40
2019-01-16T21:41:58.050Z,22.40
2019-01-16T21:45:00.524Z,22.40
2019-01-16T21:48:19.673Z,22.40
2019-01-16T21:51:28.225Z,22.40
2019-01-16T21:54:47.153Z,22.30
2019-01-16T21:57:59.950Z,22.30
2019-01-16T22:01:15.190Z,22.40
2019-01-16T22:04:34.133Z,22.30
2019-01-16T22:07:39.197Z,22.30
2019-01-16T22:10:47.715Z,22.30
2019-01-16T22:13:56.193Z,22.30
2019-01-16T22:17:17.715Z,22.30
2019-01-16T22:20:39.844Z,22.30
2019-01-16T22:23:55.686Z,22.20
2019-01-16T22:27:03.997Z,22.20
2019-01-16T22:30:10.770Z,22.20
2019-01-16T22:33:23.905Z,22.20
2019-01-16T22:36:39.949Z,22.20
2019-01-16T22:40:05.590Z,22.20
2019-01-16T22:43:07.665Z,22.10
2019-01-16T22:46:20.618Z,22.10
2019-01-16T22:49:21.754Z,22.10
2019-01-16T22:52:24.753Z,22.20
2019-01-16T22:55:37.732Z,22.10
2019-01-16T22:58:50.262Z,22.20
2019-01-16T23:02:05.773Z,22.10
2019-01-16T23:05:25.104Z,22.10
2019-01-16T23:08:35.395Z,22.10
2019-01-16T23:11:48.423Z,22.10
2019-01-16T23:15:02.600Z,22.10
2019-01-16T23:18:13.252Z,22.10
2019-01-16T23:21:15.851Z,22.10
2019-01-16T23:24:26.777Z,22.10
2019-01-16T23:27:56.366Z,22.10
2019-01-16T23:30:58.338Z,22.10
2019-01-16T23:34:11.717Z,22.10
2019-01-16T23:37:19.013Z,22.10
2019-01-16T23:40:35.967Z,22.10
2019-01-16T23:43:43.492Z,22.10
2019-01-16T23:46:51.490Z,22.10
2019-01-16T23:50:13.465Z,22.10
2019-01-16T23:53:29.430Z,22.10
2019-01-16T23:56:48.686Z,22.20
2019-01-16T23:59:57.552Z,22.20
